KPOC/POC METAR and TAF weather

Enter ICAO airport designator
Station Type Date Time Source
KPOC METAR 2024/04/18 03:47 UTC NOAA

KPOC 180347Z 24003KT 10SM CLR 17/09 A3001


Station Type Date Time Source
KPOC Decoded METAR 2024/04/18 03:47 UTC NOAA

La Verne / Brackett, CA, United States (KPOC) 34-06N 117-47W
Apr 17, 2024 - 11:47 PM EDT / 2024.04.18 0347 UTC
Wind: from the WSW (240 degrees) at 3 MPH (3 KT):0
Visibility: 10 mile(s):0
Sky conditions: clear
Temperature: 62 F (17 C)
Dew Point: 48 F (9 C)
Relative Humidity: 59%
Pressure (altimeter): 30.01 in. Hg (1016 hPa)
ob: KPOC 180347Z 24003KT 10SM CLR 17/09 A3001
cycle: 4

Station Type Date Time Source
KPOC TAF UTC NOAA

Error!

Example: see airport list